createdAt,value
2023-04-27T00:00:05.013Z,76
2023-04-27T00:02:05.150Z,77
2023-04-27T00:04:05.155Z,78
2023-04-27T00:06:05.027Z,78
2023-04-27T00:08:05.051Z,79
2023-04-27T00:12:05.016Z,79
2023-04-27T00:14:05.035Z,80
2023-04-27T00:16:05.036Z,80
2023-04-27T00:18:05.069Z,80
2023-04-27T00:20:05.063Z,80
2023-04-27T00:22:05.021Z,80
2023-04-27T00:24:05.013Z,80
2023-04-27T00:26:05.040Z,80
2023-04-27T00:28:05.031Z,81
2023-04-27T00:30:05.051Z,80
2023-04-27T00:34:05.054Z,80
2023-04-27T00:36:05.008Z,80
2023-04-27T00:38:05.028Z,81
2023-04-27T00:40:05.022Z,81
2023-04-27T00:42:05.054Z,81
2023-04-27T00:44:05.014Z,80
2023-04-27T00:48:05.061Z,80
2023-04-27T00:50:05.037Z,80
2023-04-27T00:52:05.066Z,81
2023-04-27T00:54:05.026Z,80
2023-04-27T00:56:05.043Z,80
2023-04-27T00:58:05.019Z,79
2023-04-27T01:00:05.047Z,79
2023-04-27T01:02:05.089Z,79
2023-04-27T01:04:05.111Z,79
2023-04-27T01:06:05.042Z,79
2023-04-27T01:08:05.031Z,79
2023-04-27T01:10:05.026Z,79
2023-04-27T01:12:05.041Z,79
2023-04-27T01:14:05.025Z,80
2023-04-27T01:16:05.051Z,80
2023-04-27T01:18:05.062Z,81
2023-04-27T01:20:05.057Z,81
2023-04-27T01:22:05.041Z,81
2023-04-27T01:24:05.047Z,82
2023-04-27T01:26:05.029Z,82
2023-04-27T01:28:05.036Z,82
2023-04-27T01:30:05.026Z,82
2023-04-27T01:32:05.043Z,82
2023-04-27T01:36:05.039Z,83
2023-04-27T01:38:05.044Z,82
2023-04-27T01:40:05.041Z,82
2023-04-27T01:42:05.058Z,82
2023-04-27T01:44:05.037Z,81
2023-04-27T01:46:05.049Z,81
2023-04-27T01:48:05.075Z,81
2023-04-27T01:50:05.022Z,81
2023-04-27T01:58:05.116Z,80
2023-04-27T02:00:05.077Z,80
2023-04-27T02:02:05.161Z,80
2023-04-27T02:04:05.188Z,80
2023-04-27T02:06:05.057Z,80
2023-04-27T02:08:05.060Z,81
2023-04-27T02:12:05.049Z,81
2023-04-27T02:14:05.056Z,82
2023-04-27T02:16:05.197Z,82
2023-04-27T02:18:05.094Z,81
2023-04-27T02:20:05.060Z,82
2023-04-27T02:24:05.051Z,80
2023-04-27T02:26:05.067Z,79
2023-04-27T02:30:05.155Z,78
2023-04-27T02:32:05.126Z,78
2023-04-27T02:34:05.081Z,78
2023-04-27T02:36:05.153Z,78
2023-04-27T02:38:05.173Z,78
2023-04-27T02:40:05.067Z,78
2023-04-27T02:42:05.043Z,78
2023-04-27T02:44:05.057Z,78
2023-04-27T02:46:05.071Z,78
2023-04-27T02:48:05.080Z,78
2023-04-27T02:52:05.058Z,79
2023-04-27T02:54:05.095Z,80
2023-04-27T02:56:05.082Z,81
2023-04-27T02:58:05.070Z,80
2023-04-27T03:00:05.087Z,81
2023-04-27T03:02:05.091Z,80
2023-04-27T03:04:05.213Z,80
2023-04-27T03:06:05.120Z,80
2023-04-27T03:10:05.189Z,81
2023-04-27T03:12:05.190Z,81
2023-04-27T03:14:05.143Z,80
2023-04-27T03:16:05.193Z,80
2023-04-27T03:18:05.173Z,80
2023-04-27T03:20:05.082Z,81
2023-04-27T03:24:05.031Z,81
2023-04-27T03:26:05.039Z,80
2023-04-27T03:28:05.128Z,80
2023-04-27T03:30:05.054Z,80
2023-04-27T03:32:05.045Z,80
2023-04-27T03:34:05.059Z,81
2023-04-27T03:36:05.081Z,81
2023-04-27T03:40:05.081Z,82
2023-04-27T03:42:05.066Z,82
2023-04-27T03:46:05.074Z,82
2023-04-27T03:48:05.204Z,82
2023-04-27T03:50:05.145Z,82
2023-04-27T03:52:05.111Z,82
2023-04-27T03:54:05.041Z,82
2023-04-27T03:56:05.124Z,81
2023-04-27T04:00:05.193Z,80
2023-04-27T04:02:05.876Z,80
2023-04-27T04:04:05.284Z,80
2023-04-27T04:06:05.046Z,79
2023-04-27T04:08:05.045Z,79
2023-04-27T04:10:05.065Z,79
2023-04-27T04:12:05.091Z,78
2023-04-27T04:14:05.050Z,79
2023-04-27T04:16:05.122Z,79
2023-04-27T04:20:05.050Z,79
2023-04-27T04:24:05.052Z,79
2023-04-27T04:28:05.050Z,79
2023-04-27T04:36:05.084Z,80
2023-04-27T04:40:05.054Z,79
2023-04-27T04:42:05.060Z,79
2023-04-27T04:44:05.056Z,79
2023-04-27T04:46:05.082Z,78
2023-04-27T04:48:05.088Z,78
2023-04-27T04:50:05.085Z,78
2023-04-27T04:52:05.080Z,78
2023-04-27T04:54:05.081Z,78
2023-04-27T04:56:05.056Z,78
2023-04-27T04:58:05.066Z,78
2023-04-27T05:00:05.141Z,77
2023-04-27T05:02:05.228Z,76
2023-04-27T05:04:05.220Z,76
2023-04-27T05:06:05.050Z,76
2023-04-27T05:08:05.060Z,77
2023-04-27T05:10:05.121Z,77
2023-04-27T05:12:05.079Z,78
2023-04-27T05:14:05.068Z,78
2023-04-27T05:16:05.099Z,78
2023-04-27T05:18:05.202Z,78
2023-04-27T05:20:05.093Z,76
2023-04-27T05:22:05.088Z,75
2023-04-27T05:24:05.082Z,74
2023-04-27T05:26:05.111Z,73
2023-04-27T05:28:05.047Z,73
2023-04-27T05:30:05.135Z,72
2023-04-27T05:32:05.099Z,71
2023-04-27T05:34:05.103Z,71
2023-04-27T05:38:05.068Z,71
2023-04-27T05:40:05.087Z,71
2023-04-27T05:42:05.090Z,71
2023-04-27T05:44:05.050Z,71
2023-04-27T05:46:05.109Z,72
2023-04-27T05:48:05.085Z,71
2023-04-27T05:50:05.132Z,71
2023-04-27T05:52:05.060Z,71
2023-04-27T05:54:05.091Z,72
2023-04-27T05:56:05.098Z,74
2023-04-27T05:58:08.881Z,73
2023-04-27T06:00:05.081Z,75
2023-04-27T06:04:05.135Z,76
2023-04-27T06:06:05.306Z,76
2023-04-27T06:08:05.157Z,77
2023-04-27T06:10:05.069Z,76
2023-04-27T06:12:05.096Z,75
2023-04-27T06:14:05.315Z,76
2023-04-27T06:16:05.123Z,75
2023-04-27T06:18:05.121Z,76
2023-04-27T06:20:05.080Z,76
2023-04-27T06:22:05.240Z,76
2023-04-27T06:24:05.075Z,77
2023-04-27T06:26:05.062Z,78
2023-04-27T06:28:05.067Z,75
2023-04-27T06:30:05.158Z,75
2023-04-27T06:32:05.106Z,74
2023-04-27T06:34:05.075Z,71
2023-04-27T06:36:05.068Z,71
2023-04-27T06:38:07.518Z,73
2023-04-27T06:40:05.087Z,72
2023-04-27T06:42:05.089Z,71
2023-04-27T06:44:05.071Z,70
2023-04-27T06:46:05.189Z,73
2023-04-27T06:48:05.122Z,72
2023-04-27T06:50:05.088Z,70
2023-04-27T06:52:05.064Z,69
2023-04-27T06:54:05.186Z,69
2023-04-27T06:58:05.107Z,68
2023-04-27T07:00:05.125Z,68
2023-04-27T07:04:05.191Z,67
2023-04-27T07:06:05.083Z,67
2023-04-27T07:08:07.868Z,65
2023-04-27T07:10:05.078Z,65
2023-04-27T07:12:05.069Z,65
2023-04-27T07:14:06.947Z,66
2023-04-27T07:16:05.094Z,65
2023-04-27T07:18:05.139Z,66
2023-04-27T07:20:05.080Z,65
2023-04-27T07:22:05.083Z,64
2023-04-27T07:26:05.083Z,63
2023-04-27T07:28:05.087Z,63
2023-04-27T07:30:05.093Z,62
2023-04-27T07:32:05.094Z,62
2023-04-27T07:34:05.084Z,63
2023-04-27T07:38:05.079Z,60
2023-04-27T07:40:05.085Z,61
2023-04-27T07:42:05.096Z,61
2023-04-27T07:44:05.091Z,60
2023-04-27T07:46:05.151Z,60
2023-04-27T07:48:05.109Z,60
2023-04-27T07:50:05.124Z,60
2023-04-27T07:52:05.117Z,59
2023-04-27T07:54:05.121Z,59
2023-04-27T07:56:05.125Z,60
2023-04-27T07:58:05.110Z,59
2023-04-27T08:00:05.105Z,59
2023-04-27T08:04:05.369Z,58
2023-04-27T08:06:05.583Z,58
2023-04-27T08:08:05.515Z,58
2023-04-27T08:10:05.135Z,58
2023-04-27T08:12:05.115Z,58
2023-04-27T08:14:05.100Z,58
2023-04-27T08:16:05.131Z,57
2023-04-27T08:18:05.147Z,58
2023-04-27T08:20:05.122Z,58
2023-04-27T08:22:05.115Z,59
2023-04-27T08:24:05.117Z,59
2023-04-27T08:26:05.129Z,59
2023-04-27T08:28:05.091Z,57
2023-04-27T08:30:05.112Z,58
2023-04-27T08:32:05.114Z,58
2023-04-27T08:34:05.119Z,58
2023-04-27T08:36:05.115Z,59
2023-04-27T08:38:05.102Z,57
2023-04-27T08:40:05.108Z,57
2023-04-27T08:42:05.107Z,57
2023-04-27T08:44:05.106Z,57
2023-04-27T08:50:05.216Z,56
2023-04-27T08:52:05.127Z,56
2023-04-27T08:54:05.128Z,57
2023-04-27T08:56:05.120Z,56
2023-04-27T08:58:05.107Z,56
2023-04-27T09:04:05.189Z,55
2023-04-27T09:06:06.130Z,55
2023-04-27T09:08:05.196Z,55
2023-04-27T09:12:05.127Z,56
2023-04-27T09:14:05.129Z,58
2023-04-27T09:16:05.176Z,55
2023-04-27T09:18:05.115Z,56
2023-04-27T09:20:05.197Z,56
2023-04-27T09:22:05.120Z,54
2023-04-27T09:24:05.130Z,55
2023-04-27T09:26:05.124Z,56
2023-04-27T09:28:05.123Z,55
2023-04-27T09:30:05.175Z,54
2023-04-27T09:32:05.147Z,54
2023-04-27T09:36:05.148Z,54
2023-04-27T09:38:05.124Z,55
2023-04-27T09:40:05.115Z,56
2023-04-27T09:42:05.114Z,55
2023-04-27T09:46:05.217Z,55
2023-04-27T09:48:05.162Z,55
2023-04-27T09:50:05.137Z,56
2023-04-27T09:52:05.133Z,56
2023-04-27T09:54:05.180Z,56
2023-04-27T09:56:05.134Z,55
2023-04-27T09:58:05.134Z,55
2023-04-27T10:00:05.173Z,56
2023-04-27T10:02:10.232Z,55
2023-04-27T10:04:05.296Z,55
2023-04-27T10:08:05.122Z,53
2023-04-27T10:10:05.124Z,54
2023-04-27T10:16:05.137Z,53
2023-04-27T10:18:05.203Z,53
2023-04-27T10:20:05.126Z,53
2023-04-27T10:22:05.132Z,53
2023-04-27T10:24:05.131Z,54
2023-04-27T10:26:05.132Z,54
2023-04-27T10:30:05.142Z,54
2023-04-27T10:32:05.136Z,54
2023-04-27T10:34:05.142Z,54
2023-04-27T10:36:05.128Z,54
2023-04-27T10:40:06.196Z,55
2023-04-27T10:42:05.136Z,54
2023-04-27T10:44:05.133Z,55
2023-04-27T10:46:05.151Z,55
2023-04-27T10:50:05.134Z,54
2023-04-27T10:52:05.151Z,54
2023-04-27T10:54:05.172Z,54
2023-04-27T11:00:05.149Z,54
2023-04-27T11:02:05.226Z,54
2023-04-27T11:04:05.131Z,54
2023-04-27T11:06:05.177Z,54
2023-04-27T11:08:05.181Z,55
2023-04-27T11:10:05.172Z,54
2023-04-27T11:12:05.159Z,53
2023-04-27T11:14:05.144Z,54
2023-04-27T11:16:05.163Z,54
2023-04-27T11:18:05.218Z,54
2023-04-27T11:20:05.142Z,54
2023-04-27T11:22:05.146Z,54
2023-04-27T11:24:05.174Z,54
2023-04-27T11:26:05.131Z,54
2023-04-27T11:28:05.146Z,52
2023-04-27T11:30:05.142Z,52
2023-04-27T11:32:05.183Z,52
2023-04-27T11:34:05.124Z,52
2023-04-27T11:36:05.111Z,52
2023-04-27T11:38:05.134Z,52
2023-04-27T11:40:05.124Z,53
2023-04-27T11:42:05.151Z,53
2023-04-27T11:44:05.150Z,52
2023-04-27T11:46:05.145Z,51
2023-04-27T11:48:05.182Z,52
2023-04-27T11:50:05.147Z,52
2023-04-27T11:52:05.140Z,52
2023-04-27T11:56:05.181Z,52
2023-04-27T11:58:05.150Z,52
2023-04-27T12:00:05.133Z,52
2023-04-27T12:02:05.145Z,52
2023-04-27T12:04:05.290Z,51
2023-04-27T12:06:16.548Z,52
2023-04-27T12:08:05.142Z,52
2023-04-27T12:10:05.146Z,52
2023-04-27T12:12:05.134Z,52
2023-04-27T12:14:05.140Z,51
2023-04-27T12:16:05.131Z,52
2023-04-27T12:18:05.181Z,52
2023-04-27T12:20:05.156Z,52
2023-04-27T12:22:05.180Z,52
2023-04-27T12:24:05.136Z,53
2023-04-27T12:26:05.163Z,53
2023-04-27T12:28:05.138Z,52
2023-04-27T12:30:05.159Z,51
2023-04-27T12:32:05.169Z,51
2023-04-27T12:34:05.151Z,52
2023-04-27T12:36:05.130Z,53
2023-04-27T12:38:05.147Z,53
2023-04-27T12:40:05.148Z,53
2023-04-27T12:42:05.141Z,52
2023-04-27T12:44:05.143Z,52
2023-04-27T12:46:05.157Z,52
2023-04-27T12:48:05.172Z,53
2023-04-27T12:50:05.191Z,53
2023-04-27T12:52:05.142Z,51
2023-04-27T12:54:05.175Z,50
2023-04-27T12:56:05.162Z,49
2023-04-27T12:58:05.163Z,49
2023-04-27T13:02:05.191Z,52
2023-04-27T13:06:05.166Z,51
2023-04-27T13:08:05.143Z,49
2023-04-27T13:10:05.133Z,48
2023-04-27T13:14:05.145Z,50
2023-04-27T13:16:05.190Z,50
2023-04-27T13:18:05.176Z,51
2023-04-27T13:20:05.148Z,51
2023-04-27T13:22:05.147Z,50
2023-04-27T13:24:05.145Z,51
2023-04-27T13:26:05.141Z,51
2023-04-27T13:28:05.163Z,51
2023-04-27T13:30:05.256Z,54
2023-04-27T13:32:05.227Z,53
2023-04-27T13:34:05.184Z,51
2023-04-27T13:36:05.145Z,52
2023-04-27T13:38:05.162Z,51
2023-04-27T13:40:05.167Z,51
2023-04-27T13:42:05.169Z,51
2023-04-27T13:44:05.134Z,51
2023-04-27T13:46:05.140Z,51
2023-04-27T13:48:05.200Z,52
2023-04-27T13:50:05.164Z,52
2023-04-27T13:52:05.144Z,51
2023-04-27T13:54:05.156Z,52
2023-04-27T13:56:05.171Z,52
2023-04-27T13:58:05.162Z,52
2023-04-27T14:00:05.178Z,52
2023-04-27T14:02:05.142Z,51
2023-04-27T14:04:05.241Z,51
2023-04-27T14:06:05.146Z,51
2023-04-27T14:08:05.147Z,51
2023-04-27T14:10:05.168Z,50
2023-04-27T14:12:05.155Z,50
2023-04-27T14:14:05.182Z,50
2023-04-27T14:16:05.186Z,50
2023-04-27T14:18:05.161Z,50
2023-04-27T14:20:05.251Z,52
2023-04-27T14:22:05.167Z,50
2023-04-27T14:24:05.152Z,50
2023-04-27T14:26:05.165Z,50
2023-04-27T14:28:05.158Z,50
2023-04-27T14:30:05.177Z,50
2023-04-27T14:32:05.192Z,50
2023-04-27T14:34:05.159Z,50
2023-04-27T14:36:05.166Z,50
2023-04-27T14:38:05.172Z,50
2023-04-27T14:40:05.206Z,51
2023-04-27T14:42:05.167Z,50
2023-04-27T14:44:05.167Z,50
2023-04-27T14:46:19.527Z,51
2023-04-27T14:48:05.218Z,53
2023-04-27T14:50:05.194Z,51
2023-04-27T14:52:05.169Z,51
2023-04-27T14:54:05.172Z,51
2023-04-27T14:56:05.162Z,51
2023-04-27T15:00:05.161Z,54
2023-04-27T15:02:05.168Z,52
2023-04-27T15:04:05.360Z,54
2023-04-27T15:06:05.173Z,54
2023-04-27T15:08:05.175Z,53
2023-04-27T15:10:05.179Z,53
2023-04-27T15:12:05.174Z,51
2023-04-27T15:14:05.149Z,51
2023-04-27T15:16:05.203Z,50
2023-04-27T15:20:05.169Z,51
2023-04-27T15:22:05.189Z,51
2023-04-27T15:24:05.173Z,51
2023-04-27T15:26:05.163Z,51
2023-04-27T15:28:05.170Z,52
2023-04-27T15:30:05.237Z,53
2023-04-27T15:32:05.182Z,53
2023-04-27T15:34:05.154Z,52
2023-04-27T15:36:05.171Z,53
2023-04-27T15:38:05.179Z,51
2023-04-27T15:40:05.360Z,51
2023-04-27T15:42:05.164Z,51
2023-04-27T15:44:05.166Z,52
2023-04-27T15:46:05.194Z,53
2023-04-27T15:48:05.217Z,53
2023-04-27T15:50:05.206Z,52
2023-04-27T15:52:05.167Z,52
2023-04-27T15:54:05.169Z,52
2023-04-27T15:56:05.189Z,54
2023-04-27T16:00:05.185Z,53
2023-04-27T16:02:05.190Z,55
2023-04-27T16:04:05.321Z,54
2023-04-27T16:06:05.148Z,55
2023-04-27T16:08:05.156Z,54
2023-04-27T16:10:05.180Z,54
2023-04-27T16:12:05.182Z,53
2023-04-27T16:14:05.178Z,53
2023-04-27T16:16:05.218Z,54
2023-04-27T16:18:05.197Z,52
2023-04-27T16:20:05.171Z,53
2023-04-27T16:22:05.160Z,55
2023-04-27T16:24:05.233Z,52
2023-04-27T16:26:05.199Z,52
2023-04-27T16:28:05.174Z,53
2023-04-27T16:30:05.179Z,52
2023-04-27T16:32:05.184Z,52
2023-04-27T16:34:05.170Z,53
2023-04-27T16:36:05.169Z,53
2023-04-27T16:38:05.157Z,54
2023-04-27T16:40:05.158Z,54
2023-04-27T16:42:05.172Z,54
2023-04-27T16:44:05.183Z,54
2023-04-27T16:46:05.226Z,54
2023-04-27T16:48:05.190Z,53
2023-04-27T16:50:05.203Z,53
2023-04-27T16:54:05.204Z,54
2023-04-27T16:56:05.186Z,53
2023-04-27T16:58:05.194Z,53
2023-04-27T17:00:05.204Z,54
2023-04-27T17:02:16.824Z,53
2023-04-27T17:04:05.284Z,53
2023-04-27T17:06:05.212Z,53
2023-04-27T17:08:05.689Z,54
2023-04-27T17:10:05.180Z,53
2023-04-27T17:12:05.156Z,54
2023-04-27T17:14:05.169Z,54
2023-04-27T17:16:05.196Z,54
2023-04-27T17:26:05.189Z,55
2023-04-27T17:28:05.188Z,54
2023-04-27T17:30:05.225Z,54
2023-04-27T17:32:05.185Z,55
2023-04-27T17:34:05.168Z,56
2023-04-27T17:36:05.181Z,54
2023-04-27T17:38:05.162Z,55
2023-04-27T17:40:05.166Z,55
2023-04-27T17:42:05.199Z,56
2023-04-27T17:44:05.180Z,56
2023-04-27T17:46:05.228Z,55
2023-04-27T17:48:05.264Z,54
2023-04-27T17:50:05.192Z,54
2023-04-27T17:52:05.209Z,55
2023-04-27T17:54:05.196Z,55
2023-04-27T17:56:05.187Z,55
2023-04-27T17:58:05.170Z,55
2023-04-27T18:00:05.189Z,55
2023-04-27T18:02:05.223Z,55
2023-04-27T18:04:05.275Z,55
2023-04-27T18:06:05.171Z,55
2023-04-27T18:08:05.184Z,57
2023-04-27T18:10:05.191Z,58
2023-04-27T18:12:05.181Z,58
2023-04-27T18:14:05.192Z,58
2023-04-27T18:16:05.199Z,58
2023-04-27T18:18:05.191Z,59
2023-04-27T18:20:09.343Z,59
2023-04-27T18:22:05.194Z,60
2023-04-27T18:24:05.178Z,61
2023-04-27T18:26:05.213Z,61
2023-04-27T18:28:05.907Z,61
2023-04-27T18:30:05.177Z,61
2023-04-27T18:32:05.259Z,61
2023-04-27T18:34:05.203Z,62
2023-04-27T18:36:05.192Z,62
2023-04-27T18:38:05.193Z,62
2023-04-27T18:42:05.179Z,63
2023-04-27T18:46:05.217Z,63
2023-04-27T18:48:05.200Z,64
2023-04-27T18:52:05.177Z,64
2023-04-27T18:56:05.741Z,64
2023-04-27T18:58:05.199Z,64
2023-04-27T19:00:05.171Z,64
2023-04-27T19:02:05.184Z,64
2023-04-27T19:04:05.323Z,64
2023-04-27T19:06:05.197Z,64
2023-04-27T19:08:05.190Z,65
2023-04-27T19:10:05.183Z,65
2023-04-27T19:12:05.175Z,65
2023-04-27T19:16:05.159Z,65
2023-04-27T19:20:05.177Z,66
2023-04-27T19:22:05.196Z,66
2023-04-27T19:28:05.192Z,66
2023-04-27T19:30:05.193Z,67
2023-04-27T19:32:05.199Z,67
2023-04-27T19:34:05.179Z,67
2023-04-27T19:36:05.201Z,68
2023-04-27T19:38:05.190Z,68
2023-04-27T19:40:05.176Z,68
2023-04-27T19:42:05.244Z,68
2023-04-27T19:44:05.173Z,68
2023-04-27T19:46:05.221Z,68
2023-04-27T19:48:05.261Z,68
2023-04-27T19:50:05.196Z,68
2023-04-27T19:54:05.224Z,67
2023-04-27T19:56:05.217Z,67
2023-04-27T19:58:05.199Z,67
2023-04-27T20:00:05.208Z,67
2023-04-27T20:02:05.228Z,67
2023-04-27T20:04:05.292Z,67
2023-04-27T20:06:05.407Z,67
2023-04-27T20:10:05.190Z,68
2023-04-27T20:12:05.187Z,68
2023-04-27T20:14:05.198Z,68
2023-04-27T20:16:05.241Z,68
2023-04-27T20:18:05.257Z,68
2023-04-27T20:20:05.193Z,68
2023-04-27T20:22:05.184Z,69
2023-04-27T20:24:05.186Z,69
2023-04-27T20:26:05.184Z,69
2023-04-27T20:30:05.200Z,69
2023-04-27T20:32:05.408Z,70
2023-04-27T20:34:05.219Z,70
2023-04-27T20:38:05.196Z,70
2023-04-27T20:40:05.206Z,70
2023-04-27T20:42:05.189Z,71
2023-04-27T20:44:05.195Z,70
2023-04-27T20:46:05.227Z,71
2023-04-27T20:48:05.230Z,71
2023-04-27T20:50:05.200Z,71
2023-04-27T20:52:05.193Z,71
2023-04-27T20:54:05.202Z,71
2023-04-27T20:56:05.245Z,72
2023-04-27T20:58:05.190Z,72
2023-04-27T21:00:05.205Z,72
2023-04-27T21:02:05.226Z,72
2023-04-27T21:04:05.303Z,73
2023-04-27T21:06:05.204Z,73
2023-04-27T21:08:05.204Z,73
2023-04-27T21:10:05.218Z,73
2023-04-27T21:12:05.202Z,73
2023-04-27T21:14:05.196Z,73
2023-04-27T21:16:05.199Z,73
2023-04-27T21:18:06.375Z,73
2023-04-27T21:20:05.207Z,73
2023-04-27T21:22:05.195Z,73
2023-04-27T21:24:08.035Z,73
2023-04-27T21:26:05.206Z,73
2023-04-27T21:28:05.210Z,73
2023-04-27T21:30:05.210Z,72
2023-04-27T21:32:05.223Z,71
2023-04-27T21:34:05.217Z,72
2023-04-27T21:36:05.198Z,71
2023-04-27T21:38:05.204Z,72
2023-04-27T21:40:05.208Z,72
2023-04-27T21:42:05.209Z,72
2023-04-27T21:44:05.219Z,71
2023-04-27T21:46:05.210Z,72
2023-04-27T21:50:05.209Z,72
2023-04-27T21:52:05.209Z,72
2023-04-27T21:54:05.196Z,72
2023-04-27T21:56:05.202Z,73
2023-04-27T21:58:05.219Z,73
2023-04-27T22:00:05.240Z,73
2023-04-27T22:04:05.369Z,73
2023-04-27T22:08:05.203Z,74
2023-04-27T22:10:05.220Z,74
2023-04-27T22:12:05.217Z,74
2023-04-27T22:14:05.213Z,74
2023-04-27T22:16:05.235Z,74
2023-04-27T22:18:05.223Z,75
2023-04-27T22:20:05.196Z,74
2023-04-27T22:22:05.202Z,75
2023-04-27T22:24:05.228Z,75
2023-04-27T22:26:05.795Z,76
2023-04-27T22:28:05.328Z,76
2023-04-27T22:30:05.239Z,76
2023-04-27T22:32:05.249Z,76
2023-04-27T22:36:05.242Z,76
2023-04-27T22:38:05.218Z,77
2023-04-27T22:40:05.228Z,77
2023-04-27T22:48:05.228Z,77
2023-04-27T22:50:05.222Z,77
2023-04-27T22:52:05.234Z,77
2023-04-27T22:54:05.236Z,77
2023-04-27T22:56:05.216Z,77
2023-04-27T22:58:05.213Z,77
2023-04-27T23:00:05.218Z,77
2023-04-27T23:02:05.252Z,77
2023-04-27T23:04:05.297Z,78
2023-04-27T23:08:05.202Z,78
2023-04-27T23:10:06.166Z,78
2023-04-27T23:12:05.217Z,78
2023-04-27T23:14:05.199Z,78
2023-04-27T23:16:05.228Z,78
2023-04-27T23:18:05.265Z,78
2023-04-27T23:20:06.949Z,78
2023-04-27T23:22:05.215Z,78
2023-04-27T23:24:05.232Z,78
2023-04-27T23:26:05.216Z,78
2023-04-27T23:28:05.249Z,78
2023-04-27T23:30:05.204Z,78
2023-04-27T23:32:05.217Z,78
2023-04-27T23:34:05.220Z,78
2023-04-27T23:38:05.227Z,78
2023-04-27T23:40:05.252Z,78
2023-04-27T23:42:05.245Z,79
2023-04-27T23:44:05.201Z,79
2023-04-27T23:46:05.237Z,78
2023-04-27T23:48:05.243Z,79
2023-04-27T23:50:05.217Z,79
2023-04-27T23:52:05.225Z,79
2023-04-27T23:54:05.225Z,79
2023-04-27T23:56:05.213Z,79
